Time;durP1;ratioP1;P1;durP2;ratioP2;P2;SDS_P1;SDS_P2;PMS_P1;PMS_P2;Temp;Humidity;BMP_temperature;BMP_pressure;BME280_temperature;BME280_humidity;BME280_pressure;Samples;Min_cycle;Max_cycle;Signal;HPM_P1;HPM_P2
2021/04/27 00:01:21;;;;;;;21.45;17.65;;;;;;;2.82;60.17;100576.87;115829;1199;103142;-82
2021/04/27 00:03:48;;;;;;;20.80;17.23;;;;;;;2.77;60.10;100573.31;116233;1198;103341;-82
2021/04/27 00:06:15;;;;;;;21.70;16.67;;;;;;;2.73;60.31;100579.42;115894;1196;101872;-83
2021/04/27 00:08:43;;;;;;;25.70;17.17;;;;;;;2.73;60.33;100577.66;116131;1198;103073;-82
2021/04/27 00:11:15;;;;;;;19.90;16.13;;;;;;;2.66;60.98;100573.23;115788;1199;103100;-83
2021/04/27 00:13:43;;;;;;;20.73;16.67;;;;;;;2.58;60.64;100567.03;116056;1196;102273;-84
2021/04/27 00:16:11;;;;;;;23.50;17.20;;;;;;;2.59;60.52;100569.66;115924;1196;102190;-82
2021/04/27 00:18:46;;;;;;;18.45;15.75;;;;;;;2.53;61.25;100564.34;116011;1196;103081;-81
2021/04/27 00:21:15;;;;;;;20.30;16.50;;;;;;;2.49;60.91;100562.55;116126;1197;102985;-81
2021/04/27 00:23:54;;;;;;;22.55;16.25;;;;;;;2.50;61.81;100562.56;116030;1196;101960;-82
2021/04/27 00:26:23;;;;;;;18.53;15.58;;;;;;;2.57;60.27;100566.13;116680;1199;101038;-84
2021/04/27 00:28:53;;;;;;;20.70;17.28;;;;;;;2.52;60.55;100570.48;116234;1198;103037;-83
2021/04/27 00:31:23;;;;;;;19.53;15.00;;;;;;;2.43;61.52;100562.52;116719;1198;101535;-81
2021/04/27 00:33:52;;;;;;;20.45;16.15;;;;;;;2.43;61.66;100566.02;116154;1197;103018;-82
2021/04/27 00:36:19;;;;;;;19.07;15.57;;;;;;;2.42;61.75;100564.24;116582;1197;102904;-82
2021/04/27 00:38:45;;;;;;;19.93;16.33;;;;;;;2.46;60.60;100559.91;116045;1196;103011;-83
2021/04/27 00:41:12;;;;;;;19.53;16.43;;;;;;;2.46;61.35;100557.28;115937;1196;102853;-82
2021/04/27 00:43:39;;;;;;;18.58;15.80;;;;;;;2.45;61.49;100559.04;116134;1199;102252;-82
2021/04/27 00:46:07;;;;;;;29.60;21.13;;;;;;;2.49;60.71;100559.92;116250;1196;103143;-82
2021/04/27 00:48:34;;;;;;;32.10;26.40;;;;;;;2.55;60.89;100559.13;116064;1196;103501;-82
2021/04/27 00:51:01;;;;;;;38.90;28.87;;;;;;;2.60;61.41;100554.75;116012;1196;102976;-81
2021/04/27 00:53:29;;;;;;;46.40;34.63;;;;;;;2.61;61.10;100560.06;116042;1196;103121;-82
2021/04/27 00:55:56;;;;;;;42.58;30.55;;;;;;;2.58;60.67;100556.51;116483;1196;102989;-82
2021/04/27 00:58:26;;;;;;;35.67;26.70;;;;;;;2.59;61.27;100550.39;115954;1196;103156;-82
2021/04/27 01:00:54;;;;;;;30.03;26.30;;;;;;;2.62;61.89;100559.16;116301;1195;103088;-83
2021/04/27 01:03:26;;;;;;;30.08;24.75;;;;;;;2.61;61.35;100552.17;116632;1196;102953;-82
2021/04/27 01:05:56;;;;;;;33.80;24.38;;;;;;;2.62;61.35;100550.41;116320;1196;103018;-82
2021/04/27 01:08:59;;;;;;;33.03;23.78;;;;;;;2.56;61.30;100545.09;116389;1198;103462;-85
2021/04/27 01:11:46;;;;;;;27.45;24.65;;;;;;;2.57;61.41;100546.86;115657;1196;102958;-85
2021/04/27 01:14:31;;;;;;;27.83;23.55;;;;;;;2.45;62.65;100548.52;116174;1199;103069;-82
2021/04/27 01:17:06;;;;;;;25.37;21.20;;;;;;;2.46;61.75;100546.77;116183;1196;102442;-79
2021/04/27 01:20:03;;;;;;;26.87;23.33;;;;;;;2.50;62.00;100548.55;116046;1196;103193;-82
2021/04/27 01:22:44;;;;;;;20.55;18.43;;;;;;;2.54;61.58;100549.47;116100;1199;102658;-82
2021/04/27 01:25:35;;;;;;;24.87;18.87;;;;;;;2.55;62.03;100543.34;115824;1196;103462;-83
2021/04/27 01:28:07;;;;;;;19.70;17.47;;;;;;;2.45;62.04;100544.99;116116;1200;103178;-82
2021/04/27 01:30:40;;;;;;;22.68;18.43;;;;;;;2.48;61.72;100545.05;115765;1198;103078;-83
2021/04/27 01:33:17;;;;;;;23.55;16.98;;;;;;;2.50;62.29;100548.55;116062;1196;103041;-83
2021/04/27 01:35:51;;;;;;;24.75;17.58;;;;;;;2.54;62.79;100552.09;116201;1196;103264;-84
2021/04/27 01:38:23;;;;;;;20.50;17.33;;;;;;;2.50;62.65;100551.17;116279;1196;101539;-83
2021/04/27 01:41:03;;;;;;;28.83;18.20;;;;;;;2.55;61.97;100549.47;116433;1199;102179;-84
2021/04/27 01:43:32;;;;;;;18.30;16.50;;;;;;;2.58;61.80;100551.25;116301;1196;103054;-81
2021/04/27 01:46:05;;;;;;;25.53;18.07;;;;;;;2.57;62.03;100560.00;116239;1196;103098;-83
2021/04/27 01:48:35;;;;;;;22.37;16.67;;;;;;;2.50;62.23;100559.94;116177;1196;102991;-82
2021/04/27 01:51:10;;;;;;;27.63;17.40;;;;;;;2.48;62.14;100556.42;116256;1196;103098;-83
2021/04/27 01:53:42;;;;;;;23.97;16.60;;;;;;;2.47;62.62;100551.16;116720;1197;102775;-82
2021/04/27 01:56:15;;;;;;;19.95;16.78;;;;;;;2.47;62.58;100552.03;116422;1196;102982;-82
2021/04/27 01:58:45;;;;;;;19.43;15.23;;;;;;;2.47;61.79;100553.79;116645;1196;103207;-84
2021/04/27 02:01:14;;;;;;;20.63;16.10;;;;;;;2.45;62.00;100561.66;116667;1198;101652;-85
2021/04/27 02:03:47;;;;;;;18.33;15.90;;;;;;;2.46;61.97;100549.39;116216;1196;101654;-82
2021/04/27 02:06:16;;;;;;;17.08;15.40;;;;;;;2.46;62.80;100552.89;116457;1197;101126;-82
2021/04/27 02:08:49;;;;;;;17.58;15.78;;;;;;;2.43;62.96;100552.87;116273;1196;102834;-82
2021/04/27 02:11:17;;;;;;;23.35;17.15;;;;;;;2.40;62.65;100549.32;116113;1199;102814;-83
2021/04/27 02:14:02;;;;;;;18.10;15.10;;;;;;;2.39;62.67;100555.47;116252;1196;103085;-82
2021/04/27 02:16:56;;;;;;;18.43;16.00;;;;;;;2.34;63.00;100545.77;116080;1198;103008;-82
2021/04/27 02:19:44;;;;;;;18.65;16.38;;;;;;;2.34;62.67;100552.78;116232;1198;103037;-81
2021/04/27 02:22:19;;;;;;;18.60;15.73;;;;;;;2.25;62.81;100547.43;116038;1196;103134;-82
2021/04/27 02:24:46;;;;;;;18.28;15.23;;;;;;;2.25;62.65;100542.17;116008;1196;103040;-83
2021/04/27 02:27:14;;;;;;;16.87;15.20;;;;;;;2.26;63.66;100546.57;115834;1196;103047;-84
2021/04/27 02:29:56;;;;;;;18.48;15.78;;;;;;;2.26;62.92;100541.31;115922;1196;102116;-83
2021/04/27 02:32:23;;;;;;;24.47;16.53;;;;;;;2.25;63.26;100535.16;116121;1198;102758;-85
2021/04/27 02:34:52;;;;;;;20.10;15.20;;;;;;;2.27;63.09;100537.83;116063;1196;103037;-83
2021/04/27 02:37:19;;;;;;;19.53;15.08;;;;;;;2.24;62.92;100538.68;116123;1196;102967;-82
2021/04/27 02:39:49;;;;;;;19.90;15.60;;;;;;;2.20;63.81;100533.36;116525;1196;103146;-85
2021/04/27 02:42:21;;;;;;;18.63;15.63;;;;;;;2.11;63.60;100536.80;116389;1196;101455;-83
2021/04/27 02:44:54;;;;;;;21.13;17.00;;;;;;;2.09;63.67;100531.53;116296;1196;103149;-81
2021/04/27 02:47:23;;;;;;;19.45;15.35;;;;;;;2.02;63.58;100541.95;116393;1196;102002;-82
2021/04/27 02:49:58;;;;;;;23.05;17.68;;;;;;;2.05;63.78;100531.46;116310;1196;102996;-83
2021/04/27 02:52:27;;;;;;;22.47;16.90;;;;;;;1.91;64.86;100529.57;116748;1197;101020;-83
2021/04/27 02:55:05;;;;;;;21.47;17.07;;;;;;;1.80;64.03;100523.30;116135;1200;102935;-83
2021/04/27 02:57:36;;;;;;;22.43;16.73;;;;;;;1.86;63.98;100530.39;116304;1199;103057;-84
2021/04/27 03:00:05;;;;;;;18.30;16.45;;;;;;;1.86;64.28;100536.51;116169;1200;103145;-81
2021/04/27 03:02:35;;;;;;;20.58;15.88;;;;;;;1.92;63.79;100543.56;116497;1196;101229;-82
2021/04/27 03:05:04;;;;;;;24.83;20.10;;;;;;;1.93;63.57;100542.72;116060;1199;103091;-84
2021/04/27 03:07:34;;;;;;;26.28;23.02;;;;;;;1.96;63.14;100540.11;116396;1199;101663;-82
2021/04/27 03:10:20;;;;;;;30.10;23.85;;;;;;;1.85;63.85;100545.25;116061;1199;102967;-81
2021/04/27 03:12:47;;;;;;;34.58;25.25;;;;;;;1.86;63.90;100554.03;116320;1200;103053;-82
2021/04/27 03:15:16;;;;;;;37.80;26.75;;;;;;;1.76;64.77;100547.77;116405;1200;101077;-83
2021/04/27 03:17:43;;;;;;;31.18;25.75;;;;;;;1.67;64.32;100551.17;116638;1200;101556;-84
2021/04/27 03:20:11;;;;;;;42.15;26.93;;;;;;;1.71;64.35;100547.72;116548;1199;101172;-82
2021/04/27 03:22:39;;;;;;;29.30;24.20;;;;;;;1.61;64.64;100548.45;115725;1202;103248;-83
2021/04/27 03:25:08;;;;;;;25.45;22.05;;;;;;;1.55;65.02;100549.27;116232;1201;102957;-81
2021/04/27 03:27:35;;;;;;;25.13;20.88;;;;;;;1.60;65.11;100544.06;115896;1200;103478;-82
2021/04/27 03:30:13;;;;;;;26.30;21.20;;;;;;;1.67;65.04;100546.80;115868;1203;103027;-81
2021/04/27 03:32:40;;;;;;;23.05;20.70;;;;;;;1.69;63.95;100541.55;115776;1202;103155;-83
2021/04/27 03:35:11;;;;;;;29.38;19.35;;;;;;;1.74;63.48;100549.50;115703;1200;101418;-84
2021/04/27 03:37:38;;;;;;;21.17;18.20;;;;;;;1.84;63.14;100552.26;115507;1199;103046;-83
2021/04/27 03:40:07;;;;;;;24.70;18.20;;;;;;;1.86;64.58;100548.77;115710;1200;102194;-83
2021/04/27 03:42:37;;;;;;;22.37;19.43;;;;;;;1.74;64.24;100547.75;115442;1200;103212;-81
2021/04/27 03:45:07;;;;;;;23.10;19.07;;;;;;;1.77;65.07;100555.69;115315;1200;103089;-82
2021/04/27 03:47:34;;;;;;;21.80;18.55;;;;;;;1.76;65.14;100553.91;115662;1196;103050;-83
2021/04/27 03:50:07;;;;;;;23.83;19.75;;;;;;;1.77;64.80;100553.06;116135;1199;103005;-81
2021/04/27 03:52:34;;;;;;;24.00;18.95;;;;;;;1.78;65.13;100557.42;116368;1198;103008;-82
2021/04/27 03:55:02;;;;;;;21.57;18.67;;;;;;;1.81;65.35;100557.48;116355;1198;103021;-82
2021/04/27 03:57:31;;;;;;;23.35;17.88;;;;;;;1.80;64.92;100555.71;116505;1199;101403;-83
2021/04/27 04:00:02;;;;;;;27.95;21.00;;;;;;;1.89;64.76;100551.42;116058;1199;103030;-81
2021/04/27 04:02:32;;;;;;;27.40;20.60;;;;;;;1.89;64.83;100561.93;115961;1199;103073;-83
2021/04/27 04:05:00;;;;;;;25.70;20.45;;;;;;;1.95;65.31;100567.27;116104;1197;102215;-84
2021/04/27 04:07:31;;;;;;;23.83;21.23;;;;;;;1.93;66.12;100563.73;116610;1199;101515;-83
2021/04/27 04:09:59;;;;;;;24.85;22.15;;;;;;;1.86;65.58;100568.02;116716;1199;103262;-83
2021/04/27 04:12:26;;;;;;;26.67;23.87;;;;;;;1.92;64.91;100564.58;116357;1198;102739;-82
2021/04/27 04:14:53;;;;;;;23.03;20.63;;;;;;;1.98;65.09;100569.92;116164;1199;101914;-81
2021/04/27 04:17:21;;;;;;;29.97;23.30;;;;;;;2.06;65.36;100565.63;116011;1199;103107;-82
2021/04/27 04:19:49;;;;;;;26.40;23.10;;;;;;;2.02;65.46;100565.59;116024;1198;103292;-83
2021/04/27 04:22:34;;;;;;;27.20;24.40;;;;;;;2.05;65.38;100565.61;115730;1199;102983;-82
2021/04/27 04:25:09;;;;;;;24.63;22.23;;;;;;;2.13;64.74;100567.48;115744;1200;103242;-82
2021/04/27 04:27:38;;;;;;;24.93;22.03;;;;;;;2.24;64.42;100578.09;116012;1200;103264;-81
2021/04/27 04:30:23;;;;;;;24.10;21.33;;;;;;;2.27;64.75;100572.86;115579;1202;105007;-82
2021/04/27 04:32:51;;;;;;;28.80;22.40;;;;;;;2.31;64.43;100573.78;115528;1203;103245;-83
2021/04/27 04:35:20;;;;;;;24.60;22.05;;;;;;;2.36;65.41;100582.60;115701;1202;103014;-83
2021/04/27 04:37:48;;;;;;;26.60;22.97;;;;;;;2.32;65.26;100579.05;115383;1203;103072;-82
2021/04/27 04:40:21;;;;;;;26.80;22.30;;;;;;;2.37;64.39;100579.08;115600;1202;103047;-83
2021/04/27 04:42:53;;;;;;;25.70;22.60;;;;;;;2.46;64.45;100576.55;115241;1203;103476;-82
2021/04/27 04:45:35;;;;;;;21.15;18.95;;;;;;;2.54;64.59;100576.63;115782;1203;102072;-83
2021/04/27 04:48:09;;;;;;;26.35;23.60;;;;;;;2.68;64.21;100582.89;115807;1202;101669;-82
2021/04/27 04:50:40;;;;;;;23.75;20.85;;;;;;;2.79;63.92;100582.12;115677;1202;101957;-81
2021/04/27 04:53:13;;;;;;;26.60;19.50;;;;;;;2.81;63.58;100582.99;115333;1203;103229;-82
2021/04/27 04:55:51;;;;;;;25.73;21.15;;;;;;;2.82;64.13;100583.00;115822;1202;103037;-82
2021/04/27 04:58:21;;;;;;;24.30;20.30;;;;;;;2.77;64.24;100584.73;115733;1202;101217;-83
2021/04/27 05:00:58;;;;;;;24.43;18.87;;;;;;;2.87;64.04;100572.53;115604;1199;103296;-81
2021/04/27 05:03:32;;;;;;;25.65;19.03;;;;;;;3.03;63.87;100570.03;116405;1199;101058;-83
2021/04/27 05:06:05;;;;;;;24.40;18.17;;;;;;;3.09;63.33;100575.31;115930;1200;103015;-85
2021/04/27 05:08:41;;;;;;;21.40;18.73;;;;;;;3.13;63.96;100572.73;115987;1199;101634;-83
2021/04/27 05:11:25;;;;;;;24.13;19.83;;;;;;;3.19;63.32;100566.63;116027;1196;103015;-83
2021/04/27 05:14:07;;;;;;;31.75;21.33;;;;;;;3.33;63.26;100569.33;116471;1200;101030;-82
2021/04/27 05:16:34;;;;;;;30.65;19.95;;;;;;;3.40;63.22;100573.78;115974;1197;101583;-85
2021/04/27 05:19:05;;;;;;;39.00;19.07;;;;;;;3.44;62.52;100570.29;115718;1199;103353;-82
2021/04/27 05:21:46;;;;;;;33.83;18.43;;;;;;;3.43;62.75;100571.16;116404;1196;103130;-83
2021/04/27 05:24:15;;;;;;;37.27;23.00;;;;;;;3.47;63.07;100574.69;116311;1197;103209;-85
2021/04/27 05:26:42;;;;;;;29.78;19.25;;;;;;;3.60;62.58;100578.25;116179;1196;102992;-83
2021/04/27 05:29:09;;;;;;;24.93;16.43;;;;;;;3.77;62.97;100579.23;115981;1196;101965;-86
2021/04/27 05:31:38;;;;;;;35.80;19.65;;;;;;;3.89;62.34;100575.74;116005;1199;103056;-85
2021/04/27 05:34:26;;;;;;;34.73;18.00;;;;;;;3.93;61.63;100576.65;115977;1196;103131;-84
2021/04/27 05:36:54;;;;;;;24.83;18.40;;;;;;;4.04;61.50;100580.22;116147;1196;103009;-86
2021/04/27 05:39:36;;;;;;;27.03;16.37;;;;;;;4.25;60.86;100581.14;115902;1199;103084;-85
2021/04/27 05:42:04;;;;;;;25.40;16.23;;;;;;;4.30;60.56;100587.30;115956;1199;103018;-85
2021/04/27 05:44:31;;;;;;;33.47;12.97;;;;;;;4.34;60.08;100589.07;116086;1196;103152;-84
2021/04/27 05:46:58;;;;;;;24.85;12.33;;;;;;;4.53;59.56;100587.34;115793;1196;103102;-87
2021/04/27 05:49:26;;;;;;;21.57;15.13;;;;;;;4.63;59.10;100585.61;116323;1199;102983;-85
2021/04/27 05:51:53;;;;;;;19.20;11.70;;;;;;;4.71;58.00;100591.77;115877;1199;101970;-83
2021/04/27 05:54:22;;;;;;;12.73;10.37;;;;;;;4.79;57.29;100586.50;115653;1196;103024;-84
2021/04/27 05:56:50;;;;;;;16.77;9.77;;;;;;;4.81;57.19;100590.91;115866;1199;103041;-86
2021/04/27 05:59:17;;;;;;;13.05;8.08;;;;;;;4.87;56.63;100583.88;115936;1199;103069;-84
2021/04/27 06:01:48;;;;;;;14.65;8.50;;;;;;;4.94;56.56;100588.26;115953;1197;101095;-84
2021/04/27 06:04:18;;;;;;;10.98;7.93;;;;;;;4.99;56.57;100592.65;116521;1197;103072;-83
2021/04/27 06:06:51;;;;;;;15.30;9.93;;;;;;;4.98;54.12;100579.45;116270;1200;101855;-84
2021/04/27 06:09:33;;;;;;;15.08;8.60;;;;;;;4.92;53.90;100585.63;116643;1195;102999;-84
2021/04/27 06:12:15;;;;;;;13.10;7.88;;;;;;;4.95;54.03;100597.95;116398;1199;103101;-84
2021/04/27 06:14:42;;;;;;;10.00;7.93;;;;;;;5.02;54.33;100595.31;116055;1200;103174;-84
2021/04/27 06:17:09;;;;;;;8.38;6.63;;;;;;;5.11;53.56;100589.13;116117;1198;102989;-83
2021/04/27 06:19:41;;;;;;;8.20;6.97;;;;;;;5.21;51.90;100595.27;116057;1196;103088;-84
2021/04/27 06:22:11;;;;;;;17.98;7.15;;;;;;;5.26;51.65;100596.14;116311;1200;101518;-84
2021/04/27 06:24:52;;;;;;;9.33;7.45;;;;;;;5.35;52.69;100585.56;116085;1199;103077;-83
2021/04/27 06:27:33;;;;;;;8.90;6.58;;;;;;;5.44;52.75;100584.69;115805;1198;103050;-84
2021/04/27 06:30:09;;;;;;;8.50;6.93;;;;;;;5.56;52.19;100589.05;115835;1197;103114;-85
2021/04/27 06:32:52;;;;;;;9.50;6.80;;;;;;;5.67;51.40;100583.73;115957;1199;103021;-85
2021/04/27 06:35:27;;;;;;;9.47;6.63;;;;;;;5.73;49.62;100585.47;115987;1198;102980;-85
2021/04/27 06:38:06;;;;;;;12.88;8.03;;;;;;;5.68;50.06;100582.86;115758;1198;103107;-85
2021/04/27 06:40:53;;;;;;;6.80;6.17;;;;;;;5.75;48.72;100589.00;115749;1199;103097;-84
2021/04/27 06:43:20;;;;;;;10.85;7.00;;;;;;;5.77;48.66;100588.12;116010;1199;103667;-84
2021/04/27 06:45:49;;;;;;;5.23;4.73;;;;;;;5.83;47.02;100588.08;115766;1200;103063;-88
2021/04/27 06:48:16;;;;;;;7.60;6.20;;;;;;;5.85;47.13;100593.34;116102;1198;103044;-85
2021/04/27 06:50:44;;;;;;;6.45;5.85;;;;;;;5.91;47.30;100593.33;115940;1199;102928;-84
2021/04/27 06:53:18;;;;;;;6.43;4.28;;;;;;;6.00;46.13;100593.33;116330;1199;102845;-84
2021/04/27 06:55:52;;;;;;;5.33;4.27;;;;;;;6.07;44.95;100598.60;115746;1198;102922;-85
2021/04/27 06:58:28;;;;;;;4.63;3.85;;;;;;;6.14;44.29;100585.32;116144;1199;102255;-84
2021/04/27 07:01:07;;;;;;;4.83;3.93;;;;;;;6.22;44.81;100590.57;116204;1200;102980;-85
2021/04/27 07:03:48;;;;;;;5.35;3.88;;;;;;;6.30;44.70;100590.53;115891;1199;103040;-85
2021/04/27 07:06:27;;;;;;;4.65;3.68;;;;;;;6.33;43.04;100591.41;116215;1199;103786;-83
2021/04/27 07:09:02;;;;;;;3.77;3.20;;;;;;;6.33;41.59;100594.05;115894;1197;103043;-83
2021/04/27 07:11:38;;;;;;;5.75;3.53;;;;;;;6.28;41.79;100592.33;116107;1199;103180;-84
2021/04/27 07:14:08;;;;;;;4.40;4.00;;;;;;;6.39;42.71;100592.27;115969;1199;101375;-83
2021/04/27 07:16:37;;;;;;;6.30;3.60;;;;;;;6.38;41.35;100582.56;115858;1199;103012;-86
2021/04/27 07:19:09;;;;;;;7.60;4.63;;;;;;;6.48;41.84;100595.72;116146;1198;102992;-83
2021/04/27 07:21:40;;;;;;;3.20;2.90;;;;;;;6.58;41.49;100596.53;115981;1197;103124;-85
2021/04/27 07:24:11;;;;;;;7.33;3.67;;;;;;;6.66;40.90;100599.13;116143;1198;104328;-84
2021/04/27 07:26:44;;;;;;;5.20;3.60;;;;;;;6.66;40.95;100599.13;115984;1198;103539;-84
2021/04/27 07:29:15;;;;;;;4.77;2.90;;;;;;;6.77;40.28;100597.30;116015;1196;103246;-84
2021/04/27 07:31:50;;;;;;;6.80;4.00;;;;;;;6.90;39.17;100591.90;115886;1194;103130;-84
2021/04/27 07:34:21;;;;;;;5.85;3.15;;;;;;;6.90;38.22;100602.48;116410;1199;102983;-84
2021/04/27 07:36:53;;;;;;;3.10;2.87;;;;;;;6.86;39.22;100607.82;116570;1196;101147;-85
2021/04/27 07:39:22;;;;;;;3.30;3.00;;;;;;;6.81;38.08;100598.13;116345;1196;103095;-84
2021/04/27 07:41:52;;;;;;;4.45;3.63;;;;;;;6.78;39.29;100598.16;116132;1198;103033;-84
2021/04/27 07:44:24;;;;;;;2.93;2.73;;;;;;;6.80;39.61;100601.69;116386;1198;103130;-83
2021/04/27 07:46:58;;;;;;;3.90;3.10;;;;;;;6.80;39.94;100599.05;116610;1199;100994;-84
2021/04/27 07:49:30;;;;;;;5.08;3.85;;;;;;;6.81;39.17;100603.42;116139;1199;102141;-84
2021/04/27 07:52:01;;;;;;;3.40;3.17;;;;;;;6.91;38.56;100598.95;116202;1196;101373;-84
2021/04/27 07:54:31;;;;;;;3.73;3.35;;;;;;;7.09;40.60;100592.61;115725;1195;103060;-85
2021/04/27 07:57:01;;;;;;;3.53;2.83;;;;;;;7.24;36.86;100596.88;116356;1196;103210;-85
2021/04/27 07:59:34;;;;;;;4.05;3.13;;;;;;;7.24;37.28;100599.53;116162;1196;103203;-85
2021/04/27 08:02:07;;;;;;;3.10;2.80;;;;;;;7.30;38.05;100602.13;116398;1198;101270;-86
2021/04/27 08:04:37;;;;;;;5.23;3.90;;;;;;;7.39;37.42;100595.88;116101;1196;102544;-86
2021/04/27 08:07:12;;;;;;;6.40;5.15;;;;;;;7.46;37.34;100590.48;116261;1197;101827;-84
2021/04/27 08:09:55;;;;;;;4.00;3.07;;;;;;;7.57;36.81;100595.69;116086;1196;103029;-87
2021/04/27 08:12:31;;;;;;;4.98;3.18;;;;;;;7.74;36.51;100590.17;116625;1196;101247;-83
2021/04/27 08:15:02;;;;;;;4.58;2.70;;;;;;;7.91;37.34;100597.07;116039;1196;102983;-84
2021/04/27 08:17:33;;;;;;;3.17;2.70;;;;;;;7.99;36.06;100596.06;116383;1196;101573;-85
2021/04/27 08:20:06;;;;;;;4.13;3.75;;;;;;;8.14;35.66;100591.46;116418;1196;103710;-83
2021/04/27 08:22:39;;;;;;;2.98;2.75;;;;;;;8.22;36.01;100592.23;115798;1196;103513;-84
2021/04/27 08:25:14;;;;;;;4.03;2.87;;;;;;;8.11;36.36;100591.52;116017;1196;101551;-84
2021/04/27 08:27:51;;;;;;;3.40;2.65;;;;;;;7.97;35.72;100592.57;116405;1196;101535;-84
2021/04/27 08:30:23;;;;;;;6.05;3.20;;;;;;;8.20;35.85;100589.61;115930;1200;102014;-83
2021/04/27 08:32:56;;;;;;;3.85;3.10;;;;;;;8.37;35.94;100597.34;115928;1196;103172;-82
2021/04/27 08:35:31;;;;;;;4.20;3.20;;;;;;;8.53;34.50;100589.20;116071;1196;103111;-85
2021/04/27 08:38:05;;;;;;;3.40;3.10;;;;;;;8.77;35.52;100585.28;115972;1198;103497;-85
2021/04/27 08:40:47;;;;;;;5.68;2.58;;;;;;;8.98;34.47;100583.16;116415;1196;103706;-85
2021/04/27 08:43:18;;;;;;;2.77;2.57;;;;;;;9.23;34.21;100580.96;116068;1198;103191;-87
2021/04/27 08:45:49;;;;;;;2.97;2.77;;;;;;;9.44;33.42;100576.17;115913;1196;103152;-85
2021/04/27 08:48:24;;;;;;;2.67;2.47;;;;;;;9.61;33.67;100578.48;115979;1200;102149;-86
2021/04/27 08:51:00;;;;;;;2.65;2.43;;;;;;;9.42;33.46;100584.16;116076;1196;103145;-86
2021/04/27 08:53:35;;;;;;;3.85;2.78;;;;;;;9.61;32.47;100584.70;116297;1196;101675;-82
2021/04/27 08:56:06;;;;;;;3.90;3.38;;;;;;;9.54;32.35;100594.58;115983;1196;102999;-85
2021/04/27 08:58:37;;;;;;;2.90;2.40;;;;;;;9.42;33.57;100588.61;116310;1198;103182;-86
2021/04/27 09:01:09;;;;;;;3.15;2.80;;;;;;;9.39;33.90;100601.96;116159;1196;104208;-85
2021/04/27 09:03:54;;;;;;;3.25;2.68;;;;;;;9.72;33.09;100592.47;116151;1198;102970;-84
2021/04/27 09:06:27;;;;;;;2.35;2.15;;;;;;;10.71;31.21;100582.36;115845;1196;103175;-84
2021/04/27 09:09:00;;;;;;;3.50;2.50;;;;;;;12.54;28.34;100584.47;115919;1200;103082;-84
2021/04/27 09:12:16;;;;;;;5.43;2.80;;;;;;;14.47;27.61;100574.10;115858;1197;103020;-84
2021/04/27 09:14:49;;;;;;;2.50;2.03;;;;;;;15.04;25.59;100560.22;116396;1196;103062;-86
2021/04/27 09:17:33;;;;;;;3.00;2.25;;;;;;;15.09;25.44;100577.00;116037;1199;103027;-85
2021/04/27 09:20:08;;;;;;;3.07;1.80;;;;;;;16.13;25.07;100569.78;115726;1196;102986;-87
2021/04/27 09:22:45;;;;;;;3.15;2.20;;;;;;;16.66;23.49;100573.50;115710;1198;103101;-87
2021/04/27 09:25:24;;;;;;;2.27;2.00;;;;;;;16.33;22.31;100572.38;115763;1196;103069;-84
2021/04/27 09:28:03;;;;;;;2.23;2.03;;;;;;;17.78;21.72;100563.35;116134;1196;102199;-86
2021/04/27 09:30:42;;;;;;;1.67;1.57;;;;;;;16.72;22.24;100568.69;116198;1198;103136;-86
2021/04/27 09:33:12;;;;;;;3.43;2.43;;;;;;;15.80;22.73;100565.88;116269;1199;100979;-85
2021/04/27 09:35:50;;;;;;;2.60;1.80;;;;;;;15.12;24.22;100565.27;115950;1197;102986;-85
2021/04/27 09:38:30;;;;;;;2.20;1.95;;;;;;;14.05;24.71;100570.37;116157;1199;101154;-84
2021/04/27 09:41:10;;;;;;;3.10;2.08;;;;;;;13.41;25.84;100570.05;116251;1196;103772;-85
2021/04/27 09:43:54;;;;;;;6.53;3.83;;;;;;;12.91;27.45;100582.39;116448;1199;102992;-84
2021/04/27 09:46:29;;;;;;;2.73;2.53;;;;;;;12.56;26.50;100573.73;116436;1197;102017;-84
2021/04/27 09:49:06;;;;;;;2.18;1.68;;;;;;;12.25;27.51;100573.80;116148;1196;103440;-84
2021/04/27 09:51:41;;;;;;;2.37;1.77;;;;;;;13.50;26.73;100575.97;116346;1196;103014;-85
2021/04/27 09:54:13;;;;;;;2.08;1.93;;;;;;;15.06;25.39;100566.38;116207;1199;103503;-85
2021/04/27 09:56:50;;;;;;;2.25;2.05;;;;;;;17.10;22.80;100561.50;116083;1196;103376;-84
2021/04/27 09:59:25;;;;;;;2.18;2.00;;;;;;;18.70;20.29;100560.09;116598;1196;103008;-87
2021/04/27 10:02:04;;;;;;;3.90;1.63;;;;;;;17.49;19.83;100558.58;116543;1196;101648;-84
2021/04/27 10:04:40;;;;;;;2.30;1.40;;;;;;;16.02;21.35;100563.08;116140;1199;103210;-85
2021/04/27 10:07:11;;;;;;;3.23;1.63;;;;;;;14.94;22.63;100567.80;115727;1196;103108;-85
2021/04/27 10:12:41;;;;;;;3.77;2.30;;;;;;;14.02;25.02;100567.81;115557;1201;103289;-86
2021/04/27 10:15:13;;;;;;;3.25;2.03;;;;;;;13.73;25.40;100568.02;115750;1202;103097;-85
2021/04/27 10:17:44;;;;;;;3.85;2.35;;;;;;;13.47;26.17;100559.14;116064;1201;103162;-83
2021/04/27 10:20:21;;;;;;;3.50;2.50;;;;;;;13.32;26.24;100555.18;115964;1202;103104;-84
2021/04/27 10:22:56;;;;;;;5.37;2.07;;;;;;;13.16;26.39;100565.53;115830;1202;103271;-85
2021/04/27 10:25:34;;;;;;;2.80;2.60;;;;;;;12.82;27.16;100567.55;115383;1202;103244;-84
2021/04/27 10:28:16;;;;;;;2.20;2.00;;;;;;;12.60;27.29;100575.38;115810;1202;103079;-83
2021/04/27 10:30:49;;;;;;;3.60;3.30;;;;;;;12.68;26.92;100565.31;115402;1202;103162;-84
2021/04/27 10:33:24;;;;;;;2.53;2.33;;;;;;;12.60;27.00;100569.17;115609;1202;103105;-84
2021/04/27 10:36:07;;;;;;;2.88;1.83;;;;;;;12.44;27.45;100571.45;115588;1203;102173;-87
2021/04/27 10:38:51;;;;;;;3.30;2.40;;;;;;;12.41;28.10;100567.09;115701;1202;103251;-85
2021/04/27 10:41:22;;;;;;;5.30;2.30;;;;;;;12.69;27.52;100569.74;115620;1202;103344;-86
2021/04/27 10:43:59;;;;;;;4.80;2.30;;;;;;;14.45;25.66;100559.02;115631;1203;102218;-85
2021/04/27 10:46:37;;;;;;;2.70;2.20;;;;;;;14.36;25.11;100553.09;115750;1202;103254;-84
2021/04/27 10:49:11;;;;;;;6.50;2.93;;;;;;;14.18;25.18;100546.67;115471;1202;103600;-85
2021/04/27 10:51:46;;;;;;;2.77;2.37;;;;;;;15.58;23.93;100549.84;115979;1199;103015;-86
2021/04/27 10:54:23;;;;;;;1.80;1.45;;;;;;;15.54;23.92;100546.42;115895;1199;102976;-86
2021/04/27 10:57:06;;;;;;;2.13;1.55;;;;;;;15.28;23.72;100538.65;116322;1199;103059;-85
2021/04/27 10:59:55;;;;;;;3.00;2.33;;;;;;;15.01;24.35;100536.22;115977;1199;103054;-86
2021/04/27 11:02:28;;;;;;;2.08;1.73;;;;;;;14.63;24.12;100531.50;116389;1198;101707;-84
2021/04/27 11:05:06;;;;;;;2.70;1.90;;;;;;;13.97;24.42;100542.16;115971;1199;103021;-85
2021/04/27 11:07:42;;;;;;;3.80;2.20;;;;;;;13.57;24.94;100533.80;115958;1199;103101;-88
2021/04/27 11:10:17;;;;;;;4.13;2.28;;;;;;;13.23;25.88;100534.97;116356;1198;103040;-85
2021/04/27 11:13:00;;;;;;;2.60;2.07;;;;;;;12.85;25.71;100545.20;115675;1200;103104;-83
2021/04/27 11:15:44;;;;;;;3.85;2.50;;;;;;;12.67;26.95;100538.64;116183;1202;103194;-86
2021/04/27 11:18:17;;;;;;;3.37;2.43;;;;;;;12.55;27.47;100531.91;115358;1199;103207;-86
2021/04/27 11:20:47;;;;;;;2.70;2.37;;;;;;;12.31;27.24;100545.11;116269;1199;103073;-84
2021/04/27 11:23:36;;;;;;;3.28;2.98;;;;;;;12.10;27.70;100543.11;116187;1199;103130;-86
2021/04/27 11:26:32;;;;;;;3.50;2.73;;;;;;;11.95;27.99;100539.97;116166;1199;103028;-84
2021/04/27 11:29:00;;;;;;;3.08;2.83;;;;;;;11.96;28.10;100538.20;115853;1200;103075;-82
2021/04/27 11:31:31;;;;;;;2.88;2.58;;;;;;;11.79;27.95;100535.98;116244;1199;102899;-87
2021/04/27 11:34:02;;;;;;;2.73;2.00;;;;;;;11.74;29.30;100521.90;116080;1199;103359;-86
2021/04/27 11:36:33;;;;;;;2.57;2.30;;;;;;;11.64;29.51;100527.50;116170;1197;103030;-85
2021/04/27 11:39:12;;;;;;;2.58;2.38;;;;;;;11.64;27.87;100526.64;116387;1197;101819;-85